createdAt,value
2018-05-17T00:01:36.517Z,14.01
2018-05-17T00:04:04.118Z,14.08
2018-05-17T00:06:31.780Z,14.01
2018-05-17T00:08:59.392Z,13.80
2018-05-17T00:11:27.023Z,13.74
2018-05-17T00:13:54.638Z,13.87
2018-05-17T00:16:22.235Z,13.71
2018-05-17T00:18:49.866Z,13.62
2018-05-17T00:21:17.466Z,13.75
2018-05-17T00:23:45.210Z,13.86
2018-05-17T00:26:12.818Z,14.03
2018-05-17T00:28:40.410Z,14.07
2018-05-17T00:31:08.071Z,13.95
2018-05-17T00:33:35.667Z,13.99
2018-05-17T00:36:03.330Z,13.87
2018-05-17T00:38:30.911Z,13.68
2018-05-17T00:40:58.760Z,13.88
2018-05-17T00:43:26.350Z,13.70
2018-05-17T00:45:53.948Z,13.66
2018-05-17T00:48:21.612Z,13.72
2018-05-17T00:50:49.187Z,13.55
2018-05-17T00:53:28.466Z,13.54
2018-05-17T00:55:56.067Z,13.69
2018-05-17T00:58:23.718Z,13.71
2018-05-17T01:00:51.312Z,13.80
2018-05-17T01:03:18.909Z,13.84
2018-05-17T01:05:46.528Z,13.70
2018-05-17T01:08:14.123Z,13.65
2018-05-17T01:10:41.750Z,13.88
2018-05-17T01:13:09.365Z,13.95
2018-05-17T01:15:37.016Z,13.95
2018-05-17T01:18:04.618Z,14.05
2018-05-17T01:20:32.213Z,14.12
2018-05-17T01:23:00.706Z,14.17
2018-05-17T01:25:28.351Z,14.05
2018-05-17T01:27:55.991Z,14.01
2018-05-17T01:30:23.583Z,14.07
2018-05-17T01:32:51.186Z,13.89
2018-05-17T01:35:18.807Z,13.90
2018-05-17T01:37:58.221Z,13.98
2018-05-17T01:40:25.870Z,13.93
2018-05-17T01:42:53.467Z,13.91
2018-05-17T01:45:21.062Z,13.83
2018-05-17T01:47:48.703Z,13.77
2018-05-17T01:50:16.303Z,13.82
2018-05-17T01:52:43.926Z,13.88
2018-05-17T01:55:11.520Z,13.73
2018-05-17T01:57:39.425Z,13.67
2018-05-17T02:00:07.042Z,13.68
2018-05-17T02:02:34.690Z,13.73
2018-05-17T02:05:02.308Z,13.82
2018-05-17T02:07:29.913Z,13.93
2018-05-17T02:09:57.542Z,13.94
2018-05-17T02:12:25.160Z,13.84
2018-05-17T02:14:52.962Z,14.01
2018-05-17T02:17:20.559Z,14.02
2018-05-17T02:19:48.172Z,13.83
2018-05-17T02:22:15.860Z,13.94
2018-05-17T02:24:43.466Z,13.93
2018-05-17T02:27:11.087Z,13.89
2018-05-17T02:29:38.682Z,14.01
2018-05-17T02:32:06.460Z,13.99
2018-05-17T02:34:34.094Z,14.07
2018-05-17T02:37:01.695Z,14.01
2018-05-17T02:39:29.344Z,13.83
2018-05-17T02:41:56.947Z,13.86
2018-05-17T02:44:24.581Z,13.89
2018-05-17T02:46:52.481Z,13.98
2018-05-17T02:49:20.148Z,13.96
2018-05-17T02:51:47.760Z,14.02
2018-05-17T02:54:15.380Z,14.05
2018-05-17T02:56:43.007Z,14.16
2018-05-17T02:59:10.632Z,13.95
2018-05-17T03:01:38.251Z,13.82
2018-05-17T03:04:05.857Z,13.87
2018-05-17T03:06:33.596Z,13.66
2018-05-17T03:09:01.195Z,13.69
2018-05-17T03:11:28.817Z,13.88
2018-05-17T03:13:56.465Z,13.86
2018-05-17T03:16:24.071Z,13.96
2018-05-17T03:18:51.712Z,13.97
2018-05-17T03:21:19.324Z,14.00
2018-05-17T03:23:47.343Z,14.01
2018-05-17T03:26:14.942Z,13.95
2018-05-17T03:28:42.544Z,14.02
2018-05-17T03:31:10.178Z,13.95
2018-05-17T03:33:37.791Z,14.18
2018-05-17T03:36:05.415Z,14.09
2018-05-17T03:38:33.034Z,13.88
2018-05-17T03:41:00.856Z,13.93
2018-05-17T03:43:28.464Z,13.90
2018-05-17T03:45:56.075Z,14.11
2018-05-17T03:48:23.703Z,13.88
2018-05-17T03:50:51.405Z,14.07
2018-05-17T03:53:19.063Z,14.12
2018-05-17T03:55:46.678Z,14.10
2018-05-17T03:58:14.279Z,14.02
2018-05-17T04:00:53.723Z,14.04
2018-05-17T04:03:33.146Z,13.96
2018-05-17T04:06:12.458Z,14.09
2018-05-17T04:08:40.138Z,14.18
2018-05-17T04:11:07.880Z,14.21
2018-05-17T04:13:35.499Z,14.31
2018-05-17T04:16:03.262Z,14.05
2018-05-17T04:18:30.892Z,14.30
2018-05-17T04:20:58.506Z,14.10
2018-05-17T04:23:26.139Z,13.97
2018-05-17T04:25:53.741Z,13.94
2018-05-17T04:28:21.373Z,14.18
2018-05-17T04:30:48.988Z,14.23
2018-05-17T04:33:16.791Z,14.14
2018-05-17T04:35:44.398Z,13.86
2018-05-17T04:38:12.000Z,14.01
2018-05-17T04:40:39.661Z,14.06
2018-05-17T04:43:07.275Z,14.04
2018-05-17T04:45:34.907Z,14.12
2018-05-17T04:48:02.542Z,14.14
2018-05-17T04:50:30.531Z,14.10
2018-05-17T04:52:58.200Z,14.22
2018-05-17T04:55:25.814Z,14.25
2018-05-17T04:57:53.446Z,14.17
2018-05-17T05:00:21.055Z,13.98
2018-05-17T05:02:48.725Z,13.95
2018-05-17T05:05:16.310Z,14.05
2018-05-17T05:07:44.070Z,14.05
2018-05-17T05:10:11.720Z,14.10
2018-05-17T05:12:39.325Z,14.16
2018-05-17T05:15:06.968Z,14.28
2018-05-17T05:17:34.566Z,14.27
2018-05-17T05:20:02.198Z,14.35
2018-05-17T05:22:29.823Z,14.16
2018-05-17T05:24:57.469Z,14.20
2018-05-17T05:27:25.082Z,14.03
2018-05-17T05:29:53.672Z,14.06
2018-05-17T05:32:21.330Z,14.27
2018-05-17T05:34:48.962Z,14.12
2018-05-17T05:37:16.747Z,14.32
2018-05-17T05:39:44.357Z,14.15
2018-05-17T05:42:12.224Z,14.28
2018-05-17T05:44:39.831Z,14.10
2018-05-17T05:47:07.449Z,14.47
2018-05-17T05:49:35.179Z,14.33
2018-05-17T05:52:02.768Z,14.23
2018-05-17T05:54:30.433Z,14.30
2018-05-17T05:56:58.040Z,14.40
2018-05-17T05:59:26.019Z,14.35
2018-05-17T06:01:53.630Z,14.27
2018-05-17T06:04:21.235Z,14.25
2018-05-17T06:06:48.870Z,14.32
2018-05-17T06:09:16.501Z,14.26
2018-05-17T06:11:44.179Z,14.36
2018-05-17T06:14:11.784Z,14.33
2018-05-17T06:16:39.456Z,14.41
2018-05-17T06:19:07.070Z,14.39
2018-05-17T06:21:34.682Z,14.39
2018-05-17T06:24:02.303Z,14.46
2018-05-17T06:26:29.907Z,14.65
2018-05-17T06:28:57.552Z,14.66
2018-05-17T06:31:25.187Z,14.74
2018-05-17T06:33:53.076Z,14.73
2018-05-17T06:36:20.733Z,14.72
2018-05-17T06:38:48.351Z,14.72
2018-05-17T06:41:15.976Z,14.68
2018-05-17T06:43:43.577Z,14.75
2018-05-17T06:46:11.218Z,15.04
2018-05-17T06:48:38.830Z,14.86
2018-05-17T06:51:06.491Z,14.88
2018-05-17T06:53:34.171Z,14.67
2018-05-17T06:56:01.742Z,14.66
2018-05-17T06:58:29.460Z,14.90
2018-05-17T07:00:57.093Z,14.85
2018-05-17T07:03:24.715Z,14.84
2018-05-17T07:05:52.319Z,15.06
2018-05-17T07:08:19.972Z,14.91
2018-05-17T07:10:47.581Z,14.85
2018-05-17T07:13:15.198Z,14.96
2018-05-17T07:15:42.939Z,14.91
2018-05-17T07:18:10.700Z,14.86
2018-05-17T07:20:38.199Z,14.98
2018-05-17T07:23:05.799Z,14.87
2018-05-17T07:25:33.591Z,14.70
2018-05-17T07:28:01.198Z,14.69
2018-05-17T07:30:28.809Z,14.67
2018-05-17T07:32:56.451Z,14.70
2018-05-17T07:35:24.071Z,14.79
2018-05-17T07:37:51.695Z,14.72
2018-05-17T07:40:19.360Z,14.69
2018-05-17T07:42:47.331Z,14.61
2018-05-17T07:45:14.931Z,14.55
2018-05-17T07:47:42.536Z,14.65
2018-05-17T07:50:10.169Z,14.67
2018-05-17T07:52:37.773Z,14.70
2018-05-17T07:55:05.443Z,14.58
2018-05-17T07:57:33.103Z,14.69
2018-05-17T08:00:00.716Z,14.73
2018-05-17T08:02:28.653Z,14.71
2018-05-17T08:04:56.250Z,14.90
2018-05-17T08:07:24.066Z,14.77
2018-05-17T08:09:51.671Z,14.95
2018-05-17T08:12:19.286Z,14.80
2018-05-17T08:14:46.913Z,14.83
2018-05-17T08:17:14.510Z,14.99
2018-05-17T08:19:42.279Z,14.90
2018-05-17T08:22:09.900Z,14.83
2018-05-17T08:24:37.548Z,14.83
2018-05-17T08:27:05.171Z,15.04
2018-05-17T08:29:32.793Z,14.88
2018-05-17T08:32:00.423Z,14.63
2018-05-17T08:34:28.051Z,14.69
2018-05-17T08:36:56.579Z,14.77
2018-05-17T08:39:24.185Z,14.76
2018-05-17T08:41:52.059Z,14.84
2018-05-17T08:44:19.623Z,14.77
2018-05-17T08:46:47.222Z,14.83
2018-05-17T08:49:14.847Z,14.93
2018-05-17T08:51:42.445Z,14.84
2018-05-17T08:54:10.088Z,14.73
2018-05-17T08:56:37.700Z,14.84
2018-05-17T08:59:05.678Z,14.85
2018-05-17T09:01:33.291Z,14.86
2018-05-17T09:04:00.895Z,15.02
2018-05-17T09:06:28.540Z,15.07
2018-05-17T09:08:56.147Z,15.04
2018-05-17T09:11:23.777Z,15.22
2018-05-17T09:13:51.402Z,15.26
2018-05-17T09:16:19.524Z,15.36
2018-05-17T09:18:47.155Z,15.09
2018-05-17T09:21:14.777Z,15.25
2018-05-17T09:23:42.397Z,15.31
2018-05-17T09:26:10.190Z,15.24
2018-05-17T09:28:37.924Z,15.37
2018-05-17T09:31:05.531Z,15.37
2018-05-17T09:33:33.349Z,15.71
2018-05-17T09:36:00.965Z,15.85
2018-05-17T09:38:28.578Z,15.83
2018-05-17T09:40:56.283Z,15.92
2018-05-17T09:43:23.844Z,15.50
2018-05-17T09:45:51.479Z,15.49
2018-05-17T09:48:19.161Z,15.73
2018-05-17T09:50:46.926Z,15.51
2018-05-17T09:53:14.689Z,15.71
2018-05-17T09:55:42.457Z,15.77
2018-05-17T09:58:10.078Z,16.01
2018-05-17T10:00:43.278Z,16.07
2018-05-17T10:03:10.911Z,16.23
2018-05-17T10:05:38.507Z,16.45
2018-05-17T10:08:06.497Z,16.23
2018-05-17T10:10:34.820Z,16.13
2018-05-17T10:13:03.034Z,16.04
2018-05-17T10:18:04.473Z,15.93
2018-05-17T10:20:32.114Z,15.86
2018-05-17T10:22:59.864Z,16.03
2018-05-17T10:25:27.513Z,15.99
2018-05-17T10:27:55.127Z,16.02
2018-05-17T10:30:22.727Z,15.95
2018-05-17T10:32:50.363Z,15.85
2018-05-17T10:35:17.993Z,15.75
2018-05-17T10:37:45.615Z,15.71
2018-05-17T10:40:14.993Z,15.80
2018-05-17T10:42:43.402Z,15.80
2018-05-17T10:45:11.180Z,15.84
2018-05-17T10:47:38.794Z,15.92
2018-05-17T10:50:06.418Z,15.91
2018-05-17T10:52:34.019Z,15.88
2018-05-17T10:55:01.642Z,16.10
2018-05-17T10:57:36.375Z,16.17
2018-05-17T11:00:04.786Z,16.31
2018-05-17T11:02:32.454Z,16.38
2018-05-17T11:05:00.027Z,16.13
2018-05-17T11:07:27.644Z,16.05
2018-05-17T11:09:55.243Z,16.15
2018-05-17T11:12:22.871Z,16.36
2018-05-17T11:14:50.479Z,16.49
2018-05-17T11:17:18.148Z,16.27
2018-05-17T11:19:45.750Z,16.54
2018-05-17T11:22:13.387Z,16.96
2018-05-17T11:24:41.029Z,16.87
2018-05-17T11:27:08.655Z,17.18
2018-05-17T11:29:36.305Z,17.20
2018-05-17T11:32:03.903Z,17.43
2018-05-17T11:34:31.508Z,17.31
2018-05-17T11:36:59.153Z,17.24
2018-05-17T11:39:26.762Z,17.14
2018-05-17T11:41:54.407Z,17.32
2018-05-17T11:44:22.015Z,16.97
2018-05-17T11:46:49.620Z,17.16
2018-05-17T11:49:17.253Z,17.26
2018-05-17T11:51:44.915Z,17.52
2018-05-17T11:54:12.543Z,17.02
2018-05-17T11:56:40.163Z,17.05
2018-05-17T11:59:08.211Z,17.16
2018-05-17T12:01:35.825Z,17.14
2018-05-17T12:04:03.438Z,17.32
2018-05-17T12:06:31.303Z,17.57
2018-05-17T12:08:58.928Z,17.92
2018-05-17T12:11:26.566Z,17.36
2018-05-17T12:13:54.174Z,17.35
2018-05-17T12:16:21.912Z,17.36
2018-05-17T12:18:49.515Z,17.58
2018-05-17T12:21:17.131Z,17.54
2018-05-17T12:23:44.877Z,17.51
2018-05-17T12:26:12.482Z,17.61
2018-05-17T12:28:40.110Z,17.31
2018-05-17T12:31:07.706Z,17.08
2018-05-17T12:33:35.349Z,17.23
2018-05-17T12:36:03.415Z,17.29
2018-05-17T12:38:31.030Z,17.28
2018-05-17T12:40:58.657Z,17.14
2018-05-17T12:43:26.267Z,17.30
2018-05-17T12:45:54.305Z,17.36
2018-05-17T12:48:21.910Z,17.45
2018-05-17T12:50:49.802Z,17.57
2018-05-17T12:53:17.476Z,17.83
2018-05-17T12:55:45.097Z,17.74
2018-05-17T12:58:12.717Z,17.83
2018-05-17T13:00:40.317Z,17.97
2018-05-17T13:03:08.262Z,17.93
2018-05-17T13:05:35.857Z,18.06
2018-05-17T13:08:03.641Z,18.17
2018-05-17T13:10:31.253Z,18.10
2018-05-17T13:12:58.873Z,18.15
2018-05-17T13:15:26.527Z,18.17
2018-05-17T13:17:54.134Z,18.00
2018-05-17T13:20:21.759Z,17.90
2018-05-17T13:22:49.370Z,17.96
2018-05-17T13:25:17.040Z,17.89
2018-05-17T13:27:44.642Z,17.77
2018-05-17T13:30:12.266Z,17.87
2018-05-17T13:32:39.894Z,17.92
2018-05-17T13:35:07.515Z,18.08
2018-05-17T13:37:35.474Z,17.93
2018-05-17T13:40:03.012Z,17.79
2018-05-17T13:42:30.863Z,17.83
2018-05-17T13:44:58.457Z,17.98
2018-05-17T13:47:26.094Z,17.84
2018-05-17T13:49:53.713Z,17.95
2018-05-17T13:52:21.307Z,18.21
2018-05-17T13:54:48.933Z,18.33
2018-05-17T13:57:16.546Z,18.36
2018-05-17T13:59:44.717Z,18.00
2018-05-17T14:02:12.377Z,18.02
2018-05-17T14:04:39.935Z,18.23
2018-05-17T14:07:07.559Z,18.44
2018-05-17T14:09:35.263Z,18.48
2018-05-17T14:12:02.886Z,18.42
2018-05-17T14:14:30.507Z,18.31
2018-05-17T14:16:58.558Z,18.48
2018-05-17T14:19:26.170Z,18.34
2018-05-17T14:21:53.770Z,18.37
2018-05-17T14:24:21.416Z,18.28
2018-05-17T14:26:49.093Z,18.39
2018-05-17T14:29:16.714Z,18.53
2018-05-17T14:31:44.432Z,18.61
2018-05-17T14:51:41.686Z,19.11
2018-05-17T14:54:09.327Z,18.98
2018-05-17T14:56:36.924Z,19.00
2018-05-17T14:59:04.567Z,19.06
2018-05-17T15:01:32.168Z,19.11
2018-05-17T15:03:59.855Z,18.96
2018-05-17T15:06:27.479Z,18.97
2018-05-17T15:08:55.159Z,18.82
2018-05-17T15:11:22.870Z,18.76
2018-05-17T15:13:50.396Z,18.88
2018-05-17T15:16:18.067Z,18.93
2018-05-17T15:18:45.695Z,18.86
2018-05-17T15:21:13.307Z,18.83
2018-05-17T15:23:40.935Z,18.94
2018-05-17T15:26:08.632Z,19.01
2018-05-17T15:28:36.229Z,18.96
2018-05-17T15:31:03.842Z,18.95
2018-05-17T15:33:31.490Z,18.89
2018-05-17T15:35:59.091Z,19.11
2018-05-17T15:38:26.692Z,19.11
2018-05-17T15:40:54.315Z,19.20
2018-05-17T15:43:21.924Z,19.20
2018-05-17T15:45:49.537Z,19.10
2018-05-17T15:48:17.210Z,19.18
2018-05-17T15:50:44.791Z,19.07
2018-05-17T15:53:12.950Z,19.00
2018-05-17T15:55:41.382Z,18.97
2018-05-17T15:58:08.997Z,19.05
2018-05-17T16:00:36.597Z,19.09
2018-05-17T16:03:04.469Z,19.17
2018-05-17T16:05:32.174Z,19.12
2018-05-17T16:07:59.768Z,19.09
2018-05-17T16:10:27.382Z,19.09
2018-05-17T16:12:54.982Z,19.09
2018-05-17T16:15:23.512Z,19.01
2018-05-17T16:17:50.973Z,18.98
2018-05-17T16:20:18.976Z,18.99
2018-05-17T16:22:46.569Z,18.91
2018-05-17T16:25:14.166Z,18.90
2018-05-17T16:27:41.774Z,18.79
2018-05-17T16:30:09.371Z,18.88
2018-05-17T16:32:37.078Z,18.86
2018-05-17T16:35:04.645Z,18.82
2018-05-17T16:37:32.422Z,18.78
2018-05-17T16:40:00.036Z,18.85
2018-05-17T16:42:27.674Z,18.77
2018-05-17T16:44:55.395Z,18.78
2018-05-17T16:47:22.995Z,18.71
2018-05-17T16:49:50.643Z,18.66
2018-05-17T16:52:18.242Z,18.70
2018-05-17T16:54:45.917Z,18.64
2018-05-17T16:57:13.518Z,18.64
2018-05-17T16:59:41.185Z,18.68
2018-05-17T17:02:08.806Z,18.64
2018-05-17T17:04:36.407Z,18.67
2018-05-17T17:07:04.037Z,18.64
2018-05-17T17:09:31.640Z,18.67
2018-05-17T17:11:59.418Z,18.80
2018-05-17T17:14:27.022Z,18.64
2018-05-17T17:16:54.627Z,18.71
2018-05-17T17:19:22.242Z,18.55
2018-05-17T17:21:49.838Z,18.56
2018-05-17T17:24:17.462Z,18.46
2018-05-17T17:26:45.103Z,18.48
2018-05-17T17:29:12.919Z,18.47
2018-05-17T17:31:40.518Z,18.39
2018-05-17T17:34:08.114Z,18.23
2018-05-17T17:36:35.764Z,18.26
2018-05-17T17:39:03.348Z,18.38
2018-05-17T17:41:30.968Z,18.49
2018-05-17T17:43:58.570Z,18.24
2018-05-17T17:46:26.455Z,18.19
2018-05-17T17:48:54.058Z,18.13
2018-05-17T17:51:21.675Z,18.11
2018-05-17T17:53:49.348Z,18.13
2018-05-17T17:56:16.943Z,18.19
2018-05-17T17:58:44.568Z,18.02
2018-05-17T18:01:12.243Z,17.84
2018-05-17T18:03:39.892Z,17.89
2018-05-17T18:06:07.484Z,17.89
2018-05-17T18:08:35.083Z,17.75
2018-05-17T18:11:02.712Z,17.73
2018-05-17T18:13:30.315Z,17.55
2018-05-17T18:15:57.988Z,17.55
2018-05-17T18:18:25.998Z,17.39
2018-05-17T18:20:53.625Z,17.31
2018-05-17T18:23:21.258Z,17.26
2018-05-17T18:25:48.879Z,17.22
2018-05-17T18:28:16.516Z,17.25
2018-05-17T18:30:44.114Z,17.21
2018-05-17T18:33:11.714Z,17.15
2018-05-17T18:35:39.337Z,17.12
2018-05-17T18:38:06.934Z,17.03
2018-05-17T18:40:34.554Z,17.02
2018-05-17T18:43:02.182Z,16.96
2018-05-17T18:45:30.226Z,16.84
2018-05-17T18:47:57.834Z,16.83
2018-05-17T18:50:25.437Z,16.70
2018-05-17T18:52:53.062Z,16.67
2018-05-17T18:55:22.917Z,16.61
2018-05-17T18:57:48.307Z,16.59
2018-05-17T19:00:15.984Z,16.56
2018-05-17T19:02:44.069Z,16.50
2018-05-17T19:05:11.665Z,16.57
2018-05-17T19:07:39.254Z,16.50
2018-05-17T19:10:06.880Z,16.44
2018-05-17T19:12:34.475Z,16.42
2018-05-17T19:15:02.120Z,16.33
2018-05-17T19:17:29.827Z,16.29
2018-05-17T19:19:57.575Z,16.21
2018-05-17T19:22:25.167Z,16.18
2018-05-17T19:24:52.762Z,16.20
2018-05-17T19:27:20.381Z,16.15
2018-05-17T19:29:47.991Z,16.15
2018-05-17T19:32:15.611Z,16.16
2018-05-17T19:34:43.368Z,16.13
2018-05-17T19:37:11.373Z,16.06
2018-05-17T19:39:38.906Z,16.10
2018-05-17T19:42:06.502Z,16.03
2018-05-17T19:44:34.122Z,15.96
2018-05-17T19:47:01.720Z,15.94
2018-05-17T19:49:29.352Z,15.86
2018-05-17T19:51:56.948Z,15.87
2018-05-17T19:54:24.813Z,15.98
2018-05-17T19:56:52.427Z,15.89
2018-05-17T19:59:20.160Z,15.96
2018-05-17T20:01:47.727Z,15.96
2018-05-17T20:04:15.335Z,15.94
2018-05-17T20:06:42.948Z,16.03
2018-05-17T20:09:10.570Z,15.96
2018-05-17T20:11:38.459Z,15.93
2018-05-17T20:14:06.071Z,15.87
2018-05-17T20:16:33.670Z,15.68
2018-05-17T20:19:01.308Z,15.74
2018-05-17T20:21:28.908Z,15.79
2018-05-17T20:23:56.557Z,15.80
2018-05-17T20:26:24.158Z,15.86
2018-05-17T20:28:51.802Z,15.66
2018-05-17T20:31:19.400Z,15.73
2018-05-17T20:33:46.996Z,15.61
2018-05-17T20:36:14.626Z,15.66
2018-05-17T20:38:42.240Z,15.48
2018-05-17T20:41:09.859Z,15.44
2018-05-17T20:43:37.800Z,15.38
2018-05-17T20:46:05.949Z,15.38
2018-05-17T20:48:33.553Z,15.39
2018-05-17T20:51:01.150Z,15.39
2018-05-17T20:53:28.817Z,15.35
2018-05-17T20:55:56.410Z,15.31
2018-05-17T20:58:24.051Z,15.15
2018-05-17T21:00:51.648Z,15.06
2018-05-17T21:03:19.330Z,14.95
2018-05-17T21:05:46.930Z,14.98
2018-05-17T21:08:14.536Z,15.08
2018-05-17T21:10:42.149Z,15.13
2018-05-17T21:13:09.929Z,14.95
2018-05-17T21:15:37.564Z,15.02
2018-05-17T21:18:05.175Z,14.88
2018-05-17T21:20:33.016Z,14.90
2018-05-17T21:23:00.668Z,14.93
2018-05-17T21:25:28.262Z,15.01
2018-05-17T21:27:55.883Z,14.92
2018-05-17T21:30:23.497Z,14.84
2018-05-17T21:32:51.135Z,14.68
2018-05-17T21:35:18.840Z,14.75
2018-05-17T21:37:46.440Z,14.82
2018-05-17T21:40:14.079Z,14.66
2018-05-17T21:42:41.682Z,14.73
2018-05-17T21:45:09.526Z,14.65
2018-05-17T21:47:37.119Z,14.54
2018-05-17T21:50:04.783Z,14.66
2018-05-17T21:52:32.695Z,14.76
2018-05-17T21:55:00.445Z,14.68
2018-05-17T21:57:28.068Z,14.70
2018-05-17T21:59:55.666Z,14.61
2018-05-17T22:02:23.341Z,14.56
2018-05-17T22:04:50.930Z,14.65
2018-05-17T22:07:18.527Z,14.56
2018-05-17T22:09:46.152Z,14.52
2018-05-17T22:12:13.819Z,14.46
2018-05-17T22:14:41.440Z,14.49
2018-05-17T22:17:09.031Z,14.56
2018-05-17T22:19:36.930Z,14.50
2018-05-17T22:22:04.523Z,14.57
2018-05-17T22:24:32.111Z,14.51
2018-05-17T22:26:59.724Z,14.42
2018-05-17T22:29:27.321Z,14.33
2018-05-17T22:31:54.971Z,14.32
2018-05-17T22:34:22.561Z,14.49
2018-05-17T22:36:50.220Z,14.35
2018-05-17T22:39:17.816Z,14.31
2018-05-17T22:41:45.418Z,14.53
2018-05-17T22:44:13.048Z,14.40
2018-05-17T22:46:40.646Z,14.30
2018-05-17T22:49:08.267Z,14.28
2018-05-17T22:51:35.870Z,14.48
2018-05-17T22:54:03.543Z,14.40
2018-05-17T22:56:42.926Z,14.27
2018-05-17T22:59:10.809Z,14.15
2018-05-17T23:01:38.382Z,14.22
2018-05-17T23:04:05.985Z,14.33
2018-05-17T23:06:33.615Z,14.07
2018-05-17T23:09:01.216Z,14.29
2018-05-17T23:11:28.891Z,14.12
2018-05-17T23:13:56.466Z,14.01
2018-05-17T23:16:24.124Z,14.10
2018-05-17T23:18:52.007Z,14.10
2018-05-17T23:21:19.603Z,13.89
2018-05-17T23:23:47.231Z,13.94
2018-05-17T23:26:14.851Z,13.83
2018-05-17T23:28:42.475Z,13.97
2018-05-17T23:31:10.088Z,13.84
2018-05-17T23:33:38.151Z,13.93
2018-05-17T23:36:05.747Z,13.93
2018-05-17T23:38:33.342Z,13.82
2018-05-17T23:41:12.710Z,13.82
2018-05-17T23:43:40.298Z,13.79
2018-05-17T23:46:07.915Z,13.89
2018-05-17T23:48:35.512Z,13.76
2018-05-17T23:51:03.358Z,13.67
2018-05-17T23:53:30.954Z,13.76
2018-05-17T23:55:58.554Z,13.71
2018-05-17T23:58:26.170Z,13.72
